Palm Beach, Florida
Current Conditions -  °F | °C
As of 8:53 PM on Friday 28 Nov 2014 (Local Time) from KPBI Reporting Station
Few Clouds Few Clouds  
Wind Chill: 58°   Ceiling: Unl
Heat Index: 58°   Visibility: 10mi
Dew Point: 50°   Wind: 12mph
Humidity: 75%   Direction: 320°NW
Pressure: 30.2"   Gusts: NA
Location:  26.7°N, 80.04°W
Report Text: KPBI 290153Z 32010KT 10SM FEW049 14/10 A3020 RMK AO2 SLP226 T01440100
Loading
Personal Weather Stations






























Interactive Weather Map New forecast layout! Learn more

10-Day Weather Forecast

Advertisements
Track Severe Weather on mobile